West Salisbury, Pennsylvania
Current Conditions -  °F | °C
As of 2:40 AM on Sunday 23 Nov 2014 (Local Time) from K2G4 Reporting Station
Broken Clouds Broken Clouds  
Wind Chill: 40°   Ceiling: 8500
Heat Index: 45°   Visibility: 10mi
Dew Point: 10°   Wind: 9mph
Humidity: 25%   Direction: 230°SW
Pressure: 30.13"   Gusts: NA
Location:  39.75°N, 79.1°W
Report Text: K2G4 230740Z AUTO 23008KT 10SM BKN085 07/M12 A3013 RMK AO1
Loading
Personal Weather Stations






























Interactive Weather Map New forecast layout! Learn more

10-Day Weather Forecast

Advertisements
Track Severe Weather on mobile